sensor_id;sensor_type;location;lat;lon;timestamp;P1;durP1;ratioP1;P2;durP2;ratioP2
32347;SDS011;18821;44.800;10.326;2023-06-22T00:02:14;10.45;;;6.03;;
32347;SDS011;18821;44.800;10.326;2023-06-22T00:04:40;17.10;;;6.15;;
32347;SDS011;18821;44.800;10.326;2023-06-22T00:07:06;22.60;;;7.55;;
32347;SDS011;18821;44.800;10.326;2023-06-22T00:09:32;11.13;;;6.30;;
32347;SDS011;18821;44.800;10.326;2023-06-22T00:11:58;7.95;;;5.75;;
32347;SDS011;18821;44.800;10.326;2023-06-22T00:14:24;16.42;;;6.03;;
32347;SDS011;18821;44.800;10.326;2023-06-22T00:16:50;12.80;;;5.60;;
32347;SDS011;18821;44.800;10.326;2023-06-22T00:19:21;14.27;;;5.43;;
32347;SDS011;18821;44.800;10.326;2023-06-22T00:21:47;13.40;;;6.20;;
32347;SDS011;18821;44.800;10.326;2023-06-22T00:24:21;16.60;;;5.75;;
32347;SDS011;18821;44.800;10.326;2023-06-22T00:26:47;9.75;;;5.45;;
32347;SDS011;18821;44.800;10.326;2023-06-22T00:29:14;8.85;;;5.55;;
32347;SDS011;18821;44.800;10.326;2023-06-22T00:31:40;15.13;;;6.05;;
32347;SDS011;18821;44.800;10.326;2023-06-22T00:34:06;12.13;;;5.93;;
32347;SDS011;18821;44.800;10.326;2023-06-22T00:36:34;11.13;;;6.13;;
32347;SDS011;18821;44.800;10.326;2023-06-22T00:39:00;16.23;;;5.57;;
32347;SDS011;18821;44.800;10.326;2023-06-22T00:41:27;14.82;;;6.20;;
32347;SDS011;18821;44.800;10.326;2023-06-22T00:43:54;9.30;;;5.38;;
32347;SDS011;18821;44.800;10.326;2023-06-22T00:46:20;10.57;;;5.28;;
32347;SDS011;18821;44.800;10.326;2023-06-22T00:48:48;12.30;;;6.45;;
32347;SDS011;18821;44.800;10.326;2023-06-22T00:51:15;9.13;;;5.13;;
32347;SDS011;18821;44.800;10.326;2023-06-22T00:53:41;16.05;;;6.10;;
32347;SDS011;18821;44.800;10.326;2023-06-22T00:56:09;13.02;;;4.82;;
32347;SDS011;18821;44.800;10.326;2023-06-22T00:58:38;9.65;;;4.80;;
32347;SDS011;18821;44.800;10.326;2023-06-22T01:01:06;9.05;;;5.18;;
32347;SDS011;18821;44.800;10.326;2023-06-22T01:03:33;8.25;;;4.97;;
32347;SDS011;18821;44.800;10.326;2023-06-22T01:06:02;10.23;;;4.95;;
32347;SDS011;18821;44.800;10.326;2023-06-22T01:08:51;11.23;;;5.60;;
32347;SDS011;18821;44.800;10.326;2023-06-22T01:11:28;10.52;;;5.40;;
32347;SDS011;18821;44.800;10.326;2023-06-22T01:14:12;6.45;;;4.68;;
32347;SDS011;18821;44.800;10.326;2023-06-22T01:17:03;10.13;;;5.32;;
32347;SDS011;18821;44.800;10.326;2023-06-22T01:19:37;10.88;;;5.45;;
32347;SDS011;18821;44.800;10.326;2023-06-22T01:22:07;9.10;;;5.15;;
32347;SDS011;18821;44.800;10.326;2023-06-22T01:24:41;15.85;;;5.30;;
32347;SDS011;18821;44.800;10.326;2023-06-22T01:27:20;8.03;;;4.93;;
32347;SDS011;18821;44.800;10.326;2023-06-22T01:29:51;11.57;;;5.05;;
32347;SDS011;18821;44.800;10.326;2023-06-22T01:32:32;7.57;;;4.88;;
32347;SDS011;18821;44.800;10.326;2023-06-22T01:35:00;9.80;;;4.90;;
32347;SDS011;18821;44.800;10.326;2023-06-22T01:37:30;8.48;;;4.57;;
32347;SDS011;18821;44.800;10.326;2023-06-22T01:39:57;9.10;;;4.75;;
32347;SDS011;18821;44.800;10.326;2023-06-22T01:42:24;8.25;;;5.47;;
32347;SDS011;18821;44.800;10.326;2023-06-22T01:44:52;6.80;;;5.22;;
32347;SDS011;18821;44.800;10.326;2023-06-22T01:47:20;12.10;;;5.05;;
32347;SDS011;18821;44.800;10.326;2023-06-22T01:49:47;7.85;;;5.15;;
32347;SDS011;18821;44.800;10.326;2023-06-22T01:52:16;9.38;;;4.70;;
32347;SDS011;18821;44.800;10.326;2023-06-22T01:54:43;7.13;;;4.57;;
32347;SDS011;18821;44.800;10.326;2023-06-22T01:57:09;10.43;;;4.97;;
32347;SDS011;18821;44.800;10.326;2023-06-22T01:59:41;8.32;;;5.15;;
32347;SDS011;18821;44.800;10.326;2023-06-22T02:02:19;10.70;;;5.38;;
32347;SDS011;18821;44.800;10.326;2023-06-22T02:04:56;9.63;;;5.90;;
32347;SDS011;18821;44.800;10.326;2023-06-22T02:07:30;10.82;;;4.80;;
32347;SDS011;18821;44.800;10.326;2023-06-22T02:10:01;14.53;;;5.83;;
32347;SDS011;18821;44.800;10.326;2023-06-22T02:12:29;9.52;;;5.63;;
32347;SDS011;18821;44.800;10.326;2023-06-22T02:14:56;9.13;;;5.93;;
32347;SDS011;18821;44.800;10.326;2023-06-22T02:17:23;7.47;;;4.80;;
32347;SDS011;18821;44.800;10.326;2023-06-22T02:19:50;8.60;;;5.07;;
32347;SDS011;18821;44.800;10.326;2023-06-22T02:22:16;15.48;;;5.40;;
32347;SDS011;18821;44.800;10.326;2023-06-22T02:24:43;14.07;;;5.20;;
32347;SDS011;18821;44.800;10.326;2023-06-22T02:27:09;9.68;;;5.78;;
32347;SDS011;18821;44.800;10.326;2023-06-22T02:29:36;12.63;;;5.50;;
32347;SDS011;18821;44.800;10.326;2023-06-22T02:32:02;16.05;;;5.85;;
32347;SDS011;18821;44.800;10.326;2023-06-22T02:34:29;11.75;;;5.22;;
32347;SDS011;18821;44.800;10.326;2023-06-22T02:36:55;11.13;;;5.43;;
32347;SDS011;18821;44.800;10.326;2023-06-22T02:39:21;15.98;;;5.55;;
32347;SDS011;18821;44.800;10.326;2023-06-22T02:41:53;7.78;;;5.45;;
32347;SDS011;18821;44.800;10.326;2023-06-22T02:44:21;15.65;;;6.13;;
32347;SDS011;18821;44.800;10.326;2023-06-22T02:46:47;10.98;;;5.55;;
32347;SDS011;18821;44.800;10.326;2023-06-22T02:49:15;9.23;;;5.07;;
32347;SDS011;18821;44.800;10.326;2023-06-22T02:51:42;12.27;;;6.10;;
32347;SDS011;18821;44.800;10.326;2023-06-22T02:54:12;8.18;;;5.50;;
32347;SDS011;18821;44.800;10.326;2023-06-22T02:56:38;12.73;;;4.85;;
32347;SDS011;18821;44.800;10.326;2023-06-22T02:59:06;9.68;;;5.07;;
32347;SDS011;18821;44.800;10.326;2023-06-22T03:01:36;17.13;;;6.45;;
32347;SDS011;18821;44.800;10.326;2023-06-22T03:04:07;13.32;;;6.38;;
32347;SDS011;18821;44.800;10.326;2023-06-22T03:06:33;17.60;;;6.97;;
32347;SDS011;18821;44.800;10.326;2023-06-22T03:09:01;14.68;;;6.30;;
32347;SDS011;18821;44.800;10.326;2023-06-22T03:11:30;12.85;;;5.75;;
32347;SDS011;18821;44.800;10.326;2023-06-22T03:13:58;11.02;;;5.95;;
32347;SDS011;18821;44.800;10.326;2023-06-22T03:16:24;11.75;;;6.00;;
32347;SDS011;18821;44.800;10.326;2023-06-22T03:18:52;13.85;;;5.97;;
32347;SDS011;18821;44.800;10.326;2023-06-22T03:21:25;12.25;;;6.20;;
32347;SDS011;18821;44.800;10.326;2023-06-22T03:23:54;16.38;;;6.35;;
32347;SDS011;18821;44.800;10.326;2023-06-22T03:26:21;15.07;;;6.38;;
32347;SDS011;18821;44.800;10.326;2023-06-22T03:28:47;12.68;;;7.22;;
32347;SDS011;18821;44.800;10.326;2023-06-22T03:31:13;13.45;;;6.30;;
32347;SDS011;18821;44.800;10.326;2023-06-22T03:33:40;11.68;;;6.53;;
32347;SDS011;18821;44.800;10.326;2023-06-22T03:36:06;17.13;;;6.78;;
32347;SDS011;18821;44.800;10.326;2023-06-22T03:38:32;13.15;;;5.93;;
32347;SDS011;18821;44.800;10.326;2023-06-22T03:40:58;9.38;;;5.22;;
32347;SDS011;18821;44.800;10.326;2023-06-22T03:43:25;11.70;;;6.00;;
32347;SDS011;18821;44.800;10.326;2023-06-22T03:45:51;12.38;;;5.72;;
32347;SDS011;18821;44.800;10.326;2023-06-22T03:48:17;12.80;;;5.65;;
32347;SDS011;18821;44.800;10.326;2023-06-22T03:50:43;13.13;;;5.65;;
32347;SDS011;18821;44.800;10.326;2023-06-22T03:53:09;9.52;;;5.78;;
32347;SDS011;18821;44.800;10.326;2023-06-22T03:55:36;9.43;;;5.07;;
32347;SDS011;18821;44.800;10.326;2023-06-22T03:58:02;12.55;;;5.50;;
32347;SDS011;18821;44.800;10.326;2023-06-22T04:00:31;13.93;;;5.72;;
32347;SDS011;18821;44.800;10.326;2023-06-22T04:02:57;12.43;;;5.05;;
32347;SDS011;18821;44.800;10.326;2023-06-22T04:05:23;16.10;;;5.32;;
32347;SDS011;18821;44.800;10.326;2023-06-22T04:07:49;9.00;;;4.60;;
32347;SDS011;18821;44.800;10.326;2023-06-22T04:10:15;11.48;;;5.65;;
32347;SDS011;18821;44.800;10.326;2023-06-22T04:12:41;13.90;;;5.88;;
32347;SDS011;18821;44.800;10.326;2023-06-22T04:15:07;11.15;;;5.10;;
32347;SDS011;18821;44.800;10.326;2023-06-22T04:17:33;15.02;;;5.88;;
32347;SDS011;18821;44.800;10.326;2023-06-22T04:19:59;12.65;;;5.80;;
32347;SDS011;18821;44.800;10.326;2023-06-22T04:22:25;10.02;;;4.88;;
32347;SDS011;18821;44.800;10.326;2023-06-22T04:24:51;13.07;;;5.40;;
32347;SDS011;18821;44.800;10.326;2023-06-22T04:27:18;12.43;;;5.20;;
32347;SDS011;18821;44.800;10.326;2023-06-22T04:29:45;13.70;;;5.22;;
32347;SDS011;18821;44.800;10.326;2023-06-22T04:32:17;14.40;;;5.35;;
32347;SDS011;18821;44.800;10.326;2023-06-22T04:34:43;8.20;;;5.78;;
32347;SDS011;18821;44.800;10.326;2023-06-22T04:37:09;11.32;;;5.38;;
32347;SDS011;18821;44.800;10.326;2023-06-22T04:39:41;10.57;;;5.60;;
32347;SDS011;18821;44.800;10.326;2023-06-22T04:42:08;14.38;;;6.38;;
32347;SDS011;18821;44.800;10.326;2023-06-22T04:44:34;11.18;;;5.85;;
32347;SDS011;18821;44.800;10.326;2023-06-22T04:47:00;11.30;;;6.10;;
32347;SDS011;18821;44.800;10.326;2023-06-22T04:49:29;11.85;;;5.65;;
32347;SDS011;18821;44.800;10.326;2023-06-22T04:52:01;13.02;;;6.25;;
32347;SDS011;18821;44.800;10.326;2023-06-22T04:54:31;11.63;;;5.68;;
32347;SDS011;18821;44.800;10.326;2023-06-22T04:57:01;14.57;;;6.10;;
32347;SDS011;18821;44.800;10.326;2023-06-22T04:59:28;11.07;;;5.78;;
32347;SDS011;18821;44.800;10.326;2023-06-22T05:04:25;12.00;;;5.75;;
32347;SDS011;18821;44.800;10.326;2023-06-22T05:06:53;13.40;;;7.28;;
32347;SDS011;18821;44.800;10.326;2023-06-22T05:09:19;16.45;;;6.68;;
32347;SDS011;18821;44.800;10.326;2023-06-22T05:11:46;17.67;;;6.15;;
32347;SDS011;18821;44.800;10.326;2023-06-22T05:14:12;14.15;;;7.07;;
32347;SDS011;18821;44.800;10.326;2023-06-22T05:16:40;13.50;;;6.57;;
32347;SDS011;18821;44.800;10.326;2023-06-22T05:19:07;16.60;;;6.32;;
32347;SDS011;18821;44.800;10.326;2023-06-22T05:21:33;15.48;;;6.68;;
32347;SDS011;18821;44.800;10.326;2023-06-22T05:23:59;16.83;;;6.80;;
32347;SDS011;18821;44.800;10.326;2023-06-22T05:26:28;18.10;;;7.75;;
32347;SDS011;18821;44.800;10.326;2023-06-22T05:28:55;12.20;;;6.93;;
32347;SDS011;18821;44.800;10.326;2023-06-22T05:31:21;25.15;;;7.07;;
32347;SDS011;18821;44.800;10.326;2023-06-22T05:33:48;17.15;;;7.97;;
32347;SDS011;18821;44.800;10.326;2023-06-22T05:36:15;20.70;;;8.73;;
32347;SDS011;18821;44.800;10.326;2023-06-22T05:38:41;17.60;;;8.60;;
32347;SDS011;18821;44.800;10.326;2023-06-22T05:41:07;17.88;;;7.22;;
32347;SDS011;18821;44.800;10.326;2023-06-22T05:43:34;15.80;;;7.50;;
32347;SDS011;18821;44.800;10.326;2023-06-22T05:46:00;20.52;;;7.60;;
32347;SDS011;18821;44.800;10.326;2023-06-22T05:48:27;14.88;;;7.78;;
32347;SDS011;18821;44.800;10.326;2023-06-22T05:50:53;18.48;;;7.53;;
32347;SDS011;18821;44.800;10.326;2023-06-22T05:53:19;13.73;;;6.70;;
32347;SDS011;18821;44.800;10.326;2023-06-22T05:55:45;16.63;;;6.60;;
32347;SDS011;18821;44.800;10.326;2023-06-22T05:58:12;24.75;;;7.65;;
32347;SDS011;18821;44.800;10.326;2023-06-22T06:00:38;22.52;;;7.05;;
32347;SDS011;18821;44.800;10.326;2023-06-22T06:03:05;19.35;;;6.70;;
32347;SDS011;18821;44.800;10.326;2023-06-22T06:05:32;14.98;;;7.65;;
32347;SDS011;18821;44.800;10.326;2023-06-22T06:08:00;15.60;;;7.75;;
32347;SDS011;18821;44.800;10.326;2023-06-22T06:10:26;15.55;;;6.32;;
32347;SDS011;18821;44.800;10.326;2023-06-22T06:12:55;20.15;;;7.68;;
32347;SDS011;18821;44.800;10.326;2023-06-22T06:15:21;16.00;;;6.55;;
32347;SDS011;18821;44.800;10.326;2023-06-22T06:17:48;16.88;;;7.05;;
32347;SDS011;18821;44.800;10.326;2023-06-22T06:20:15;14.32;;;7.30;;
32347;SDS011;18821;44.800;10.326;2023-06-22T06:22:43;20.83;;;9.45;;
32347;SDS011;18821;44.800;10.326;2023-06-22T06:25:09;14.55;;;7.20;;
32347;SDS011;18821;44.800;10.326;2023-06-22T06:27:35;17.05;;;7.13;;
32347;SDS011;18821;44.800;10.326;2023-06-22T06:30:01;20.27;;;6.80;;
32347;SDS011;18821;44.800;10.326;2023-06-22T06:32:29;14.98;;;7.05;;
32347;SDS011;18821;44.800;10.326;2023-06-22T06:34:55;14.18;;;6.30;;
32347;SDS011;18821;44.800;10.326;2023-06-22T06:37:22;17.58;;;7.45;;
32347;SDS011;18821;44.800;10.326;2023-06-22T06:39:48;11.77;;;5.80;;
32347;SDS011;18821;44.800;10.326;2023-06-22T06:42:14;18.45;;;7.35;;
32347;SDS011;18821;44.800;10.326;2023-06-22T06:44:40;15.45;;;6.22;;
32347;SDS011;18821;44.800;10.326;2023-06-22T06:47:06;14.05;;;5.88;;
32347;SDS011;18821;44.800;10.326;2023-06-22T06:49:33;9.07;;;6.10;;
32347;SDS011;18821;44.800;10.326;2023-06-22T06:51:59;8.85;;;5.30;;
32347;SDS011;18821;44.800;10.326;2023-06-22T06:54:24;17.33;;;6.72;;
32347;SDS011;18821;44.800;10.326;2023-06-22T06:56:50;13.93;;;6.93;;
32347;SDS011;18821;44.800;10.326;2023-06-22T06:59:16;17.00;;;6.30;;
32347;SDS011;18821;44.800;10.326;2023-06-22T07:01:42;12.15;;;5.80;;
32347;SDS011;18821;44.800;10.326;2023-06-22T07:04:10;12.40;;;5.63;;
32347;SDS011;18821;44.800;10.326;2023-06-22T07:06:36;11.02;;;6.03;;
32347;SDS011;18821;44.800;10.326;2023-06-22T07:09:03;11.68;;;6.10;;
32347;SDS011;18821;44.800;10.326;2023-06-22T07:11:28;14.32;;;5.60;;
32347;SDS011;18821;44.800;10.326;2023-06-22T07:13:54;12.18;;;5.28;;
32347;SDS011;18821;44.800;10.326;2023-06-22T07:16:20;11.73;;;5.80;;
32347;SDS011;18821;44.800;10.326;2023-06-22T07:18:46;9.85;;;5.80;;
32347;SDS011;18821;44.800;10.326;2023-06-22T07:21:12;13.13;;;5.05;;
32347;SDS011;18821;44.800;10.326;2023-06-22T07:23:38;9.73;;;4.95;;
32347;SDS011;18821;44.800;10.326;2023-06-22T07:26:04;8.57;;;5.43;;
32347;SDS011;18821;44.800;10.326;2023-06-22T07:28:32;8.02;;;4.97;;
32347;SDS011;18821;44.800;10.326;2023-06-22T07:31:02;10.30;;;5.07;;
32347;SDS011;18821;44.800;10.326;2023-06-22T07:33:29;6.65;;;4.63;;
32347;SDS011;18821;44.800;10.326;2023-06-22T07:35:55;8.73;;;4.78;;
32347;SDS011;18821;44.800;10.326;2023-06-22T07:38:21;7.20;;;4.40;;
32347;SDS011;18821;44.800;10.326;2023-06-22T07:40:47;6.55;;;4.07;;
32347;SDS011;18821;44.800;10.326;2023-06-22T07:43:13;14.15;;;4.97;;
32347;SDS011;18821;44.800;10.326;2023-06-22T07:45:39;11.00;;;4.97;;
32347;SDS011;18821;44.800;10.326;2023-06-22T07:48:06;12.90;;;5.00;;
32347;SDS011;18821;44.800;10.326;2023-06-22T07:50:32;9.05;;;4.40;;
32347;SDS011;18821;44.800;10.326;2023-06-22T07:52:58;10.40;;;5.10;;
32347;SDS011;18821;44.800;10.326;2023-06-22T07:55:25;9.85;;;4.93;;
32347;SDS011;18821;44.800;10.326;2023-06-22T07:57:51;10.35;;;4.70;;
32347;SDS011;18821;44.800;10.326;2023-06-22T08:00:17;13.95;;;5.18;;
32347;SDS011;18821;44.800;10.326;2023-06-22T08:02:44;12.90;;;4.95;;
32347;SDS011;18821;44.800;10.326;2023-06-22T08:05:12;11.07;;;5.13;;
32347;SDS011;18821;44.800;10.326;2023-06-22T08:07:38;15.00;;;5.50;;
32347;SDS011;18821;44.800;10.326;2023-06-22T08:10:05;10.10;;;5.60;;
32347;SDS011;18821;44.800;10.326;2023-06-22T08:12:31;8.80;;;4.63;;
32347;SDS011;18821;44.800;10.326;2023-06-22T08:14:57;9.25;;;5.18;;
32347;SDS011;18821;44.800;10.326;2023-06-22T08:17:23;15.48;;;5.43;;
32347;SDS011;18821;44.800;10.326;2023-06-22T08:19:50;17.38;;;6.18;;
32347;SDS011;18821;44.800;10.326;2023-06-22T08:22:16;17.95;;;6.50;;
32347;SDS011;18821;44.800;10.326;2023-06-22T08:24:43;15.10;;;6.85;;
32347;SDS011;18821;44.800;10.326;2023-06-22T08:27:10;12.98;;;6.80;;
32347;SDS011;18821;44.800;10.326;2023-06-22T08:29:38;15.73;;;7.30;;
32347;SDS011;18821;44.800;10.326;2023-06-22T08:32:05;12.30;;;6.70;;
32347;SDS011;18821;44.800;10.326;2023-06-22T08:34:31;18.23;;;7.22;;
32347;SDS011;18821;44.800;10.326;2023-06-22T08:36:57;24.63;;;8.15;;
32347;SDS011;18821;44.800;10.326;2023-06-22T08:39:23;14.68;;;6.38;;
32347;SDS011;18821;44.800;10.326;2023-06-22T08:41:49;9.20;;;6.13;;
32347;SDS011;18821;44.800;10.326;2023-06-22T08:44:18;17.98;;;7.47;;
32347;SDS011;18821;44.800;10.326;2023-06-22T08:46:45;14.13;;;6.50;;
32347;SDS011;18821;44.800;10.326;2023-06-22T08:49:11;15.88;;;6.20;;
32347;SDS011;18821;44.800;10.326;2023-06-22T08:51:37;11.20;;;6.30;;
32347;SDS011;18821;44.800;10.326;2023-06-22T08:54:03;9.73;;;5.93;;
32347;SDS011;18821;44.800;10.326;2023-06-22T08:56:30;17.63;;;6.75;;
32347;SDS011;18821;44.800;10.326;2023-06-22T08:58:56;17.13;;;6.55;;
32347;SDS011;18821;44.800;10.326;2023-06-22T09:01:22;10.27;;;6.18;;
32347;SDS011;18821;44.800;10.326;2023-06-22T09:03:48;12.80;;;6.15;;
32347;SDS011;18821;44.800;10.326;2023-06-22T09:06:21;11.48;;;5.82;;
32347;SDS011;18821;44.800;10.326;2023-06-22T09:08:47;16.15;;;7.22;;
32347;SDS011;18821;44.800;10.326;2023-06-22T09:11:13;16.90;;;6.85;;
32347;SDS011;18821;44.800;10.326;2023-06-22T09:13:39;13.25;;;6.40;;
32347;SDS011;18821;44.800;10.326;2023-06-22T09:16:05;14.98;;;7.10;;
32347;SDS011;18821;44.800;10.326;2023-06-22T09:18:33;14.07;;;6.35;;
32347;SDS011;18821;44.800;10.326;2023-06-22T09:20:59;11.43;;;5.63;;
32347;SDS011;18821;44.800;10.326;2023-06-22T09:23:26;11.45;;;5.70;;
32347;SDS011;18821;44.800;10.326;2023-06-22T09:25:52;11.52;;;6.63;;
32347;SDS011;18821;44.800;10.326;2023-06-22T09:28:18;14.23;;;6.45;;
32347;SDS011;18821;44.800;10.326;2023-06-22T09:30:44;15.43;;;6.55;;
32347;SDS011;18821;44.800;10.326;2023-06-22T09:33:10;12.82;;;6.07;;
32347;SDS011;18821;44.800;10.326;2023-06-22T09:35:36;12.95;;;6.97;;
32347;SDS011;18821;44.800;10.326;2023-06-22T09:38:02;11.38;;;5.65;;
32347;SDS011;18821;44.800;10.326;2023-06-22T09:40:27;10.52;;;5.90;;
32347;SDS011;18821;44.800;10.326;2023-06-22T09:42:54;9.68;;;6.28;;
32347;SDS011;18821;44.800;10.326;2023-06-22T09:45:20;10.27;;;5.75;;
32347;SDS011;18821;44.800;10.326;2023-06-22T09:47:45;13.30;;;5.72;;
32347;SDS011;18821;44.800;10.326;2023-06-22T09:50:11;18.98;;;6.15;;
32347;SDS011;18821;44.800;10.326;2023-06-22T09:52:40;18.55;;;6.07;;
32347;SDS011;18821;44.800;10.326;2023-06-22T09:55:10;15.23;;;6.43;;
32347;SDS011;18821;44.800;10.326;2023-06-22T09:57:36;11.05;;;5.72;;
32347;SDS011;18821;44.800;10.326;2023-06-22T10:00:02;11.52;;;6.38;;
32347;SDS011;18821;44.800;10.326;2023-06-22T10:02:30;14.23;;;6.47;;
32347;SDS011;18821;44.800;10.326;2023-06-22T10:04:56;17.55;;;6.75;;
32347;SDS011;18821;44.800;10.326;2023-06-22T10:07:24;17.50;;;6.63;;
32347;SDS011;18821;44.800;10.326;2023-06-22T10:09:50;14.95;;;6.57;;
32347;SDS011;18821;44.800;10.326;2023-06-22T10:12:16;14.30;;;6.90;;
32347;SDS011;18821;44.800;10.326;2023-06-22T10:14:41;15.18;;;6.10;;
32347;SDS011;18821;44.800;10.326;2023-06-22T10:17:07;14.00;;;6.90;;
32347;SDS011;18821;44.800;10.326;2023-06-22T10:19:33;12.35;;;7.28;;
32347;SDS011;18821;44.800;10.326;2023-06-22T10:22:02;17.45;;;6.47;;
32347;SDS011;18821;44.800;10.326;2023-06-22T10:24:29;9.05;;;6.43;;
32347;SDS011;18821;44.800;10.326;2023-06-22T10:26:55;12.02;;;6.63;;
32347;SDS011;18821;44.800;10.326;2023-06-22T10:29:21;14.85;;;6.78;;
32347;SDS011;18821;44.800;10.326;2023-06-22T10:31:47;12.50;;;6.35;;
32347;SDS011;18821;44.800;10.326;2023-06-22T10:34:13;11.90;;;6.90;;
32347;SDS011;18821;44.800;10.326;2023-06-22T10:36:40;13.00;;;7.03;;
32347;SDS011;18821;44.800;10.326;2023-06-22T10:39:06;15.20;;;7.05;;
32347;SDS011;18821;44.800;10.326;2023-06-22T10:41:32;13.60;;;6.07;;
32347;SDS011;18821;44.800;10.326;2023-06-22T10:43:58;13.43;;;6.53;;
32347;SDS011;18821;44.800;10.326;2023-06-22T10:46:24;13.05;;;6.35;;
32347;SDS011;18821;44.800;10.326;2023-06-22T10:48:51;10.15;;;5.18;;
32347;SDS011;18821;44.800;10.326;2023-06-22T10:51:19;13.00;;;6.03;;
32347;SDS011;18821;44.800;10.326;2023-06-22T10:53:47;11.73;;;5.82;;
32347;SDS011;18821;44.800;10.326;2023-06-22T10:56:13;9.77;;;5.65;;
32347;SDS011;18821;44.800;10.326;2023-06-22T10:58:38;14.13;;;5.72;;
32347;SDS011;18821;44.800;10.326;2023-06-22T11:01:04;13.15;;;5.55;;
32347;SDS011;18821;44.800;10.326;2023-06-22T11:03:30;9.93;;;5.97;;
32347;SDS011;18821;44.800;10.326;2023-06-22T11:05:56;18.63;;;7.85;;
32347;SDS011;18821;44.800;10.326;2023-06-22T11:08:22;15.55;;;5.82;;
32347;SDS011;18821;44.800;10.326;2023-06-22T11:10:48;11.73;;;5.60;;
32347;SDS011;18821;44.800;10.326;2023-06-22T11:13:16;12.52;;;6.55;;
32347;SDS011;18821;44.800;10.326;2023-06-22T11:15:42;14.82;;;6.35;;
32347;SDS011;18821;44.800;10.326;2023-06-22T11:18:08;12.13;;;5.93;;
32347;SDS011;18821;44.800;10.326;2023-06-22T11:20:34;9.68;;;6.47;;
32347;SDS011;18821;44.800;10.326;2023-06-22T11:23:07;17.83;;;5.97;;
32347;SDS011;18821;44.800;10.326;2023-06-22T11:25:33;9.63;;;5.93;;
32347;SDS011;18821;44.800;10.326;2023-06-22T11:28:03;8.25;;;5.40;;
32347;SDS011;18821;44.800;10.326;2023-06-22T11:30:30;11.70;;;6.32;;
32347;SDS011;18821;44.800;10.326;2023-06-22T11:32:56;11.18;;;5.85;;
32347;SDS011;18821;44.800;10.326;2023-06-22T11:35:24;9.25;;;5.70;;
32347;SDS011;18821;44.800;10.326;2023-06-22T11:37:50;16.92;;;6.80;;
32347;SDS011;18821;44.800;10.326;2023-06-22T11:40:15;14.35;;;6.05;;
32347;SDS011;18821;44.800;10.326;2023-06-22T11:42:43;11.77;;;5.22;;
32347;SDS011;18821;44.800;10.326;2023-06-22T11:45:09;19.38;;;6.97;;
32347;SDS011;18821;44.800;10.326;2023-06-22T11:47:35;13.70;;;6.47;;
32347;SDS011;18821;44.800;10.326;2023-06-22T11:50:02;8.98;;;5.82;;
32347;SDS011;18821;44.800;10.326;2023-06-22T11:52:28;10.82;;;6.03;;
32347;SDS011;18821;44.800;10.326;2023-06-22T11:54:54;12.60;;;5.43;;
32347;SDS011;18821;44.800;10.326;2023-06-22T11:57:20;15.05;;;6.43;;
32347;SDS011;18821;44.800;10.326;2023-06-22T11:59:46;15.80;;;6.35;;
32347;SDS011;18821;44.800;10.326;2023-06-22T12:02:11;9.55;;;5.43;;
32347;SDS011;18821;44.800;10.326;2023-06-22T12:04:37;21.35;;;6.78;;
32347;SDS011;18821;44.800;10.326;2023-06-22T12:07:03;12.35;;;6.68;;
32347;SDS011;18821;44.800;10.326;2023-06-22T12:09:29;7.68;;;5.38;;
32347;SDS011;18821;44.800;10.326;2023-06-22T12:11:55;14.02;;;6.68;;
32347;SDS011;18821;44.800;10.326;2023-06-22T12:14:22;11.73;;;5.88;;
32347;SDS011;18821;44.800;10.326;2023-06-22T12:16:48;12.27;;;6.22;;
32347;SDS011;18821;44.800;10.326;2023-06-22T12:19:14;10.35;;;6.22;;
32347;SDS011;18821;44.800;10.326;2023-06-22T12:21:40;8.95;;;6.10;;
32347;SDS011;18821;44.800;10.326;2023-06-22T12:24:06;13.98;;;5.80;;
32347;SDS011;18821;44.800;10.326;2023-06-22T12:26:32;18.58;;;6.97;;
32347;SDS011;18821;44.800;10.326;2023-06-22T12:28:58;12.63;;;6.40;;
32347;SDS011;18821;44.800;10.326;2023-06-22T12:31:24;21.40;;;6.35;;
32347;SDS011;18821;44.800;10.326;2023-06-22T12:33:50;12.50;;;6.35;;
32347;SDS011;18821;44.800;10.326;2023-06-22T12:36:16;10.45;;;6.38;;
32347;SDS011;18821;44.800;10.326;2023-06-22T12:38:42;14.27;;;6.15;;
32347;SDS011;18821;44.800;10.326;2023-06-22T12:41:07;20.75;;;6.82;;
32347;SDS011;18821;44.800;10.326;2023-06-22T12:43:33;11.40;;;6.47;;
32347;SDS011;18821;44.800;10.326;2023-06-22T12:45:59;11.80;;;6.32;;
32347;SDS011;18821;44.800;10.326;2023-06-22T12:48:26;16.40;;;6.07;;
32347;SDS011;18821;44.800;10.326;2023-06-22T12:50:52;14.95;;;6.45;;
32347;SDS011;18821;44.800;10.326;2023-06-22T12:53:18;14.75;;;6.88;;
32347;SDS011;18821;44.800;10.326;2023-06-22T12:55:44;16.30;;;6.50;;
32347;SDS011;18821;44.800;10.326;2023-06-22T12:58:10;11.07;;;6.07;;
32347;SDS011;18821;44.800;10.326;2023-06-22T13:00:37;14.07;;;6.38;;
32347;SDS011;18821;44.800;10.326;2023-06-22T13:03:03;14.90;;;6.60;;
32347;SDS011;18821;44.800;10.326;2023-06-22T13:05:29;11.45;;;6.00;;
32347;SDS011;18821;44.800;10.326;2023-06-22T13:07:56;12.02;;;7.07;;
32347;SDS011;18821;44.800;10.326;2023-06-22T13:10:22;10.90;;;5.85;;
32347;SDS011;18821;44.800;10.326;2023-06-22T13:12:47;12.50;;;6.53;;
32347;SDS011;18821;44.800;10.326;2023-06-22T13:15:13;12.95;;;7.18;;
32347;SDS011;18821;44.800;10.326;2023-06-22T13:17:39;21.10;;;7.10;;
32347;SDS011;18821;44.800;10.326;2023-06-22T13:20:05;14.70;;;6.63;;
32347;SDS011;18821;44.800;10.326;2023-06-22T13:22:32;18.88;;;6.85;;
32347;SDS011;18821;44.800;10.326;2023-06-22T13:25:05;11.55;;;7.18;;
32347;SDS011;18821;44.800;10.326;2023-06-22T13:27:31;10.35;;;6.32;;
32347;SDS011;18821;44.800;10.326;2023-06-22T13:29:57;10.60;;;6.38;;
32347;SDS011;18821;44.800;10.326;2023-06-22T13:32:23;13.02;;;6.13;;
32347;SDS011;18821;44.800;10.326;2023-06-22T13:34:51;17.10;;;7.65;;
32347;SDS011;18821;44.800;10.326;2023-06-22T13:37:17;12.68;;;7.28;;
32347;SDS011;18821;44.800;10.326;2023-06-22T13:39:44;14.77;;;7.28;;
32347;SDS011;18821;44.800;10.326;2023-06-22T13:42:09;18.35;;;7.63;;
32347;SDS011;18821;44.800;10.326;2023-06-22T13:44:35;15.02;;;6.60;;
32347;SDS011;18821;44.800;10.326;2023-06-22T13:47:01;13.07;;;7.97;;
32347;SDS011;18821;44.800;10.326;2023-06-22T13:49:28;10.85;;;7.18;;
32347;SDS011;18821;44.800;10.326;2023-06-22T13:51:54;11.45;;;6.78;;
32347;SDS011;18821;44.800;10.326;2023-06-22T13:54:20;18.10;;;7.47;;
32347;SDS011;18821;44.800;10.326;2023-06-22T13:56:46;15.40;;;7.38;;
32347;SDS011;18821;44.800;10.326;2023-06-22T13:59:12;11.68;;;7.47;;
32347;SDS011;18821;44.800;10.326;2023-06-22T14:01:38;16.40;;;7.65;;
32347;SDS011;18821;44.800;10.326;2023-06-22T14:04:05;21.45;;;7.03;;
32347;SDS011;18821;44.800;10.326;2023-06-22T14:06:31;18.45;;;8.05;;
32347;SDS011;18821;44.800;10.326;2023-06-22T14:08:57;21.63;;;9.13;;
32347;SDS011;18821;44.800;10.326;2023-06-22T14:11:24;15.95;;;7.63;;
32347;SDS011;18821;44.800;10.326;2023-06-22T14:13:50;15.85;;;7.82;;
32347;SDS011;18821;44.800;10.326;2023-06-22T14:16:16;15.27;;;7.00;;
32347;SDS011;18821;44.800;10.326;2023-06-22T14:18:42;16.67;;;8.35;;
32347;SDS011;18821;44.800;10.326;2023-06-22T14:21:09;10.77;;;7.60;;
32347;SDS011;18821;44.800;10.326;2023-06-22T14:23:35;13.35;;;7.90;;
32347;SDS011;18821;44.800;10.326;2023-06-22T14:26:03;17.45;;;7.78;;